EZS68LG LGSR-LSGG
Flight info
| Callsign | EZS68LG |
|---|---|
| Flight time | 2h 48m |
| Altitude | 34000 |
| Route | NETIS UM601 MIL UN134 KOR DCT XANIS DCT TUMBO DCT OVVER DCT RODON DCT VAKSU DCT BAXON DCT SRN DCT OMETO DCT TERSI L615 BANKO |
| Aircraft | A320/M-SDE2E3FGHIJ1RWXYZ/LB1 |
Departure
| Time | 2026-04-23 11:13 |
|---|---|
| Airport | Santorini International Airport (LGSR) |
Arrival
| Time | 2026-04-23 14:01 |
|---|---|
| Airport | Geneva International Airport (LSGG) |
| Time | Latitude | Longitude | Altitude | Speed | Heading |
|---|---|---|---|---|---|
| 2026-04-23 10:17 | 36.40381 | 25.47358 | 91 ft | 0 kts | 249° |
| 2026-04-23 11:01 | 36.40383 | 25.47366 | 92 ft | 4 kts | 249° |
| 2026-04-23 11:01 | 36.40391 | 25.47392 | 91 ft | 4 kts | 244° |
| 2026-04-23 11:02 | 36.40406 | 25.47412 | 91 ft | 4 kts | 179° |
| 2026-04-23 11:02 | 36.40428 | 25.47406 | 92 ft | 1 kts | 159° |
| 2026-04-23 11:02 | 36.40429 | 25.47406 | 90 ft | 0 kts | 159° |
| 2026-04-23 11:05 | 36.40427 | 25.47407 | 90 ft | 2 kts | 159° |
| 2026-04-23 11:05 | 36.40410 | 25.47437 | 94 ft | 7 kts | 78° |
| 2026-04-23 11:06 | 36.40382 | 25.47528 | 90 ft | 6 kts | 155° |
| 2026-04-23 11:06 | 36.40338 | 25.47550 | 89 ft | 9 kts | 159° |
| 2026-04-23 11:06 | 36.40286 | 25.47574 | 89 ft | 7 kts | 159° |
| 2026-04-23 11:07 | 36.40241 | 25.47594 | 90 ft | 6 kts | 159° |
| 2026-04-23 11:07 | 36.40204 | 25.47612 | 90 ft | 5 kts | 159° |
| 2026-04-23 11:07 | 36.40174 | 25.47626 | 92 ft | 5 kts | 159° |
| 2026-04-23 11:07 | 36.40108 | 25.47657 | 88 ft | 12 kts | 159° |
| 2026-04-23 11:08 | 36.40034 | 25.47693 | 88 ft | 11 kts | 159° |
| 2026-04-23 11:08 | 36.39966 | 25.47725 | 89 ft | 10 kts | 160° |
| 2026-04-23 11:08 | 36.39903 | 25.47754 | 86 ft | 9 kts | 159° |
| 2026-04-23 11:08 | 36.39845 | 25.47782 | 87 ft | 9 kts | 159° |
| 2026-04-23 11:09 | 36.39790 | 25.47808 | 87 ft | 8 kts | 159° |
| 2026-04-23 11:09 | 36.39729 | 25.47836 | 82 ft | 11 kts | 160° |
| 2026-04-23 11:09 | 36.39656 | 25.47871 | 80 ft | 11 kts | 159° |
| 2026-04-23 11:09 | 36.39582 | 25.47906 | 75 ft | 12 kts | 159° |
| 2026-04-23 11:10 | 36.39491 | 25.47949 | 69 ft | 21 kts | 159° |
| 2026-04-23 11:10 | 36.39345 | 25.48018 | 64 ft | 21 kts | 159° |
| 2026-04-23 11:10 | 36.39209 | 25.48082 | 59 ft | 21 kts | 159° |
| 2026-04-23 11:10 | 36.39079 | 25.48144 | 58 ft | 17 kts | 159° |
| 2026-04-23 11:11 | 36.39006 | 25.48210 | 56 ft | 12 kts | 98° |
| 2026-04-23 11:11 | 36.39024 | 25.48286 | 55 ft | 7 kts | 69° |
| 2026-04-23 11:11 | 36.39044 | 25.48317 | 56 ft | 5 kts | 33° |
| 2026-04-23 11:11 | 36.39082 | 25.48311 | 54 ft | 5 kts | 340° |
| 2026-04-23 11:12 | 36.39121 | 25.48293 | 58 ft | 12 kts | 339° |
| 2026-04-23 11:12 | 36.39440 | 25.48140 | 61 ft | 84 kts | 339° |
| 2026-04-23 11:12 | 36.40173 | 25.47794 | 91 ft | 138 kts | 339° |
| 2026-04-23 11:12 | 36.41175 | 25.47326 | 416 ft | 154 kts | 342° |
| 2026-04-23 11:13 | 36.42147 | 25.46886 | 1329 ft | 146 kts | 346° |
| 2026-04-23 11:13 | 36.43128 | 25.46568 | 1868 ft | 150 kts | 341° |
| 2026-04-23 11:13 | 36.43982 | 25.45686 | 2049 ft | 175 kts | 307° |
| 2026-04-23 11:13 | 36.44759 | 25.44434 | 2207 ft | 197 kts | 315° |
| 2026-04-23 11:14 | 36.45787 | 25.43152 | 2496 ft | 222 kts | 317° |
| 2026-04-23 11:14 | 36.46956 | 25.41756 | 2914 ft | 242 kts | 317° |
| 2026-04-23 11:14 | 36.48186 | 25.40274 | 3604 ft | 249 kts | 315° |
| 2026-04-23 11:14 | 36.49426 | 25.38756 | 4372 ft | 252 kts | 313° |
| 2026-04-23 11:15 | 36.50670 | 25.37208 | 5147 ft | 255 kts | 313° |
| 2026-04-23 11:15 | 36.51927 | 25.35628 | 5917 ft | 258 kts | 312° |
| 2026-04-23 11:15 | 36.53193 | 25.34027 | 6664 ft | 261 kts | 312° |
| 2026-04-23 11:15 | 36.54468 | 25.32403 | 7391 ft | 264 kts | 311° |
| 2026-04-23 11:16 | 36.55737 | 25.30781 | 8121 ft | 266 kts | 311° |
| 2026-04-23 11:16 | 36.57031 | 25.29127 | 8899 ft | 267 kts | 310° |
| 2026-04-23 11:16 | 36.58331 | 25.27468 | 9681 ft | 268 kts | 310° |
| 2026-04-23 11:16 | 36.59644 | 25.25788 | 10241 ft | 278 kts | 310° |
| 2026-04-23 11:17 | 36.61040 | 25.23988 | 10393 ft | 300 kts | 310° |
| 2026-04-23 11:17 | 36.62532 | 25.22060 | 10711 ft | 315 kts | 310° |
| 2026-04-23 11:17 | 36.64067 | 25.20087 | 11321 ft | 319 kts | 310° |
| 2026-04-23 11:17 | 36.65615 | 25.18105 | 12029 ft | 320 kts | 310° |
| 2026-04-23 11:18 | 36.67173 | 25.16114 | 12737 ft | 322 kts | 310° |
| 2026-04-23 11:18 | 36.68739 | 25.14116 | 13434 ft | 323 kts | 310° |
| 2026-04-23 11:18 | 36.70290 | 25.12133 | 14102 ft | 324 kts | 309° |
| 2026-04-23 11:18 | 36.71866 | 25.10107 | 14688 ft | 327 kts | 309° |
| 2026-04-23 11:19 | 36.73452 | 25.08064 | 15244 ft | 329 kts | 309° |
| 2026-04-23 11:19 | 36.75055 | 25.05997 | 15791 ft | 332 kts | 309° |
| 2026-04-23 11:19 | 36.76667 | 25.03916 | 16333 ft | 335 kts | 309° |
| 2026-04-23 11:19 | 36.78295 | 25.01815 | 16866 ft | 338 kts | 309° |
| 2026-04-23 11:20 | 36.79936 | 24.99696 | 17397 ft | 341 kts | 309° |
| 2026-04-23 11:20 | 36.81593 | 24.97558 | 17928 ft | 344 kts | 309° |
| 2026-04-23 11:20 | 36.83265 | 24.95402 | 18439 ft | 347 kts | 309° |
| 2026-04-23 11:20 | 36.84924 | 24.93258 | 18902 ft | 349 kts | 308° |
| 2026-04-23 11:21 | 36.86617 | 24.91069 | 19387 ft | 352 kts | 308° |
| 2026-04-23 11:21 | 36.88322 | 24.88863 | 19877 ft | 354 kts | 308° |
| 2026-04-23 11:21 | 36.90036 | 24.86647 | 20363 ft | 356 kts | 308° |
| 2026-04-23 11:21 | 36.91761 | 24.84414 | 20842 ft | 358 kts | 308° |
| 2026-04-23 11:22 | 36.93497 | 24.82165 | 21313 ft | 361 kts | 308° |
| 2026-04-23 11:22 | 36.95244 | 24.79900 | 21777 ft | 363 kts | 308° |
| 2026-04-23 11:22 | 36.97001 | 24.77618 | 22231 ft | 365 kts | 308° |
| 2026-04-23 11:22 | 36.98768 | 24.75320 | 22680 ft | 368 kts | 308° |
| 2026-04-23 11:23 | 37.00525 | 24.73034 | 23104 ft | 370 kts | 308° |
| 2026-04-23 11:23 | 37.02315 | 24.70705 | 23538 ft | 373 kts | 308° |
| 2026-04-23 11:23 | 37.04116 | 24.68357 | 23890 ft | 375 kts | 308° |
| 2026-04-23 11:23 | 37.05925 | 24.65999 | 24251 ft | 376 kts | 308° |
| 2026-04-23 11:24 | 37.07742 | 24.63629 | 24601 ft | 378 kts | 308° |
| 2026-04-23 11:24 | 37.09565 | 24.61248 | 24959 ft | 379 kts | 308° |
| 2026-04-23 11:24 | 37.11395 | 24.58861 | 25298 ft | 381 kts | 308° |
| 2026-04-23 11:24 | 37.13232 | 24.56464 | 25621 ft | 382 kts | 308° |
| 2026-04-23 11:25 | 37.15074 | 24.54054 | 25955 ft | 384 kts | 308° |
| 2026-04-23 11:25 | 37.16916 | 24.51642 | 26270 ft | 385 kts | 308° |
| 2026-04-23 11:25 | 37.18750 | 24.49242 | 26571 ft | 387 kts | 308° |
| 2026-04-23 11:25 | 37.20615 | 24.46798 | 26894 ft | 388 kts | 308° |
| 2026-04-23 11:26 | 37.22486 | 24.44345 | 27202 ft | 390 kts | 308° |
| 2026-04-23 11:26 | 37.24366 | 24.41876 | 27502 ft | 391 kts | 308° |
| 2026-04-23 11:26 | 37.26248 | 24.39399 | 27782 ft | 393 kts | 308° |
| 2026-04-23 11:26 | 37.28136 | 24.36915 | 28082 ft | 394 kts | 308° |
| 2026-04-23 11:27 | 37.30034 | 24.34416 | 28364 ft | 396 kts | 308° |
| 2026-04-23 11:27 | 37.31940 | 24.31906 | 28635 ft | 398 kts | 308° |
| 2026-04-23 11:27 | 37.33852 | 24.29388 | 28898 ft | 399 kts | 308° |
| 2026-04-23 11:27 | 37.35770 | 24.26857 | 29162 ft | 401 kts | 308° |
| 2026-04-23 11:28 | 37.37697 | 24.24315 | 29416 ft | 402 kts | 308° |
| 2026-04-23 11:28 | 37.39603 | 24.21797 | 29659 ft | 403 kts | 308° |
| 2026-04-23 11:28 | 37.41541 | 24.19233 | 29923 ft | 405 kts | 307° |
| 2026-04-23 11:28 | 37.43483 | 24.16662 | 30228 ft | 407 kts | 308° |
| 2026-04-23 11:29 | 37.45433 | 24.14085 | 30561 ft | 406 kts | 308° |
| 2026-04-23 11:29 | 37.47373 | 24.11517 | 30867 ft | 404 kts | 307° |
| 2026-04-23 11:29 | 37.49304 | 24.08953 | 31160 ft | 402 kts | 307° |
| 2026-04-23 11:29 | 37.51224 | 24.06396 | 31447 ft | 401 kts | 307° |
| 2026-04-23 11:30 | 37.53133 | 24.03855 | 31757 ft | 400 kts | 307° |
| 2026-04-23 11:30 | 37.54398 | 24.02172 | 31981 ft | 399 kts | 307° |
| 2026-04-23 11:30 | 37.56945 | 23.98789 | 32371 ft | 397 kts | 307° |
| 2026-04-23 11:30 | 37.58817 | 23.96303 | 32645 ft | 396 kts | 307° |
| 2026-04-23 11:31 | 37.60709 | 23.93790 | 32927 ft | 394 kts | 307° |
| 2026-04-23 11:31 | 37.62590 | 23.91280 | 33206 ft | 393 kts | 307° |
| 2026-04-23 11:31 | 37.64463 | 23.88774 | 33493 ft | 392 kts | 307° |
| 2026-04-23 11:31 | 37.65700 | 23.87117 | 33678 ft | 391 kts | 307° |
| 2026-04-23 11:32 | 37.68189 | 23.83784 | 33993 ft | 390 kts | 307° |
| 2026-04-23 11:32 | 37.71256 | 23.79688 | 34049 ft | 384 kts | 307° |
| 2026-04-23 11:33 | 37.75527 | 23.73971 | 34052 ft | 381 kts | 307° |
| 2026-04-23 11:33 | 37.79131 | 23.69120 | 34052 ft | 381 kts | 307° |
| 2026-04-23 11:34 | 37.82744 | 23.64243 | 34045 ft | 380 kts | 307° |
| 2026-04-23 11:34 | 37.85754 | 23.60183 | 34050 ft | 380 kts | 307° |
| 2026-04-23 11:35 | 37.89377 | 23.55307 | 34060 ft | 380 kts | 307° |
| 2026-04-23 11:35 | 37.93587 | 23.49644 | 34063 ft | 380 kts | 307° |
| 2026-04-23 11:36 | 37.96587 | 23.45583 | 34059 ft | 379 kts | 307° |
| 2026-04-23 11:36 | 38.00178 | 23.40697 | 34058 ft | 379 kts | 306° |
| 2026-04-23 11:37 | 38.03773 | 23.35811 | 34059 ft | 379 kts | 307° |
| 2026-04-23 11:37 | 38.07368 | 23.30924 | 34056 ft | 379 kts | 307° |
| 2026-04-23 11:38 | 38.10933 | 23.26071 | 34056 ft | 378 kts | 307° |
| 2026-04-23 11:38 | 38.14523 | 23.21183 | 34052 ft | 378 kts | 306° |
| 2026-04-23 11:39 | 38.18105 | 23.16291 | 34057 ft | 378 kts | 306° |
| 2026-04-23 11:39 | 38.22269 | 23.10602 | 34054 ft | 378 kts | 306° |
| 2026-04-23 11:40 | 38.25240 | 23.06528 | 34060 ft | 378 kts | 306° |
| 2026-04-23 11:40 | 38.28811 | 23.01625 | 34055 ft | 378 kts | 306° |
| 2026-04-23 11:41 | 38.32394 | 22.96700 | 34058 ft | 383 kts | 306° |
| 2026-04-23 11:41 | 38.36066 | 22.91639 | 34055 ft | 394 kts | 306° |
| 2026-04-23 11:42 | 38.39810 | 22.86467 | 34057 ft | 401 kts | 307° |
| 2026-04-23 11:42 | 38.43597 | 22.81249 | 34053 ft | 406 kts | 307° |
| 2026-04-23 11:43 | 38.47445 | 22.75939 | 34060 ft | 409 kts | 307° |
| 2026-04-23 11:43 | 38.51304 | 22.70597 | 34057 ft | 409 kts | 307° |
| 2026-04-23 11:44 | 38.55133 | 22.65279 | 34056 ft | 410 kts | 307° |
| 2026-04-23 11:44 | 38.58989 | 22.59916 | 34051 ft | 409 kts | 307° |
| 2026-04-23 11:45 | 38.62836 | 22.54550 | 34049 ft | 410 kts | 307° |
| 2026-04-23 11:45 | 38.66693 | 22.49180 | 34049 ft | 410 kts | 307° |
| 2026-04-23 11:46 | 38.70524 | 22.43836 | 34050 ft | 410 kts | 307° |
| 2026-04-23 11:46 | 38.74381 | 22.38437 | 34045 ft | 411 kts | 307° |
| 2026-04-23 11:47 | 38.78240 | 22.33026 | 34039 ft | 412 kts | 307° |
| 2026-04-23 11:47 | 38.82103 | 22.27597 | 34040 ft | 413 kts | 307° |
| 2026-04-23 11:48 | 38.85970 | 22.22155 | 34041 ft | 414 kts | 307° |
| 2026-04-23 11:48 | 38.89819 | 22.16729 | 34041 ft | 414 kts | 307° |
| 2026-04-23 11:49 | 38.93697 | 22.11252 | 34040 ft | 415 kts | 307° |
| 2026-04-23 11:49 | 38.97581 | 22.05763 | 34041 ft | 415 kts | 308° |
| 2026-04-23 11:50 | 39.01472 | 22.00258 | 34041 ft | 416 kts | 308° |
| 2026-04-23 11:50 | 39.05335 | 21.94768 | 34033 ft | 417 kts | 308° |
| 2026-04-23 11:51 | 39.09224 | 21.89230 | 34036 ft | 418 kts | 308° |
| 2026-04-23 11:51 | 39.13126 | 21.83677 | 34029 ft | 418 kts | 308° |
| 2026-04-23 11:52 | 39.17031 | 21.78111 | 34031 ft | 419 kts | 308° |
| 2026-04-23 11:52 | 39.20938 | 21.72533 | 34020 ft | 419 kts | 308° |
| 2026-04-23 11:53 | 39.24840 | 21.66935 | 34018 ft | 420 kts | 308° |
| 2026-04-23 11:53 | 39.28715 | 21.61362 | 34016 ft | 421 kts | 308° |
| 2026-04-23 11:54 | 39.32634 | 21.55735 | 34012 ft | 421 kts | 308° |
| 2026-04-23 11:54 | 39.36557 | 21.50094 | 34015 ft | 422 kts | 308° |
| 2026-04-23 11:55 | 39.40479 | 21.44434 | 34008 ft | 423 kts | 308° |
| 2026-04-23 11:55 | 39.44381 | 21.38801 | 34004 ft | 424 kts | 308° |
| 2026-04-23 11:56 | 39.48313 | 21.33107 | 34002 ft | 425 kts | 308° |
| 2026-04-23 11:56 | 39.52249 | 21.27404 | 33990 ft | 425 kts | 309° |
| 2026-04-23 11:57 | 39.56188 | 21.21683 | 33986 ft | 426 kts | 309° |
| 2026-04-23 11:57 | 39.60109 | 21.15963 | 33981 ft | 428 kts | 309° |
| 2026-04-23 11:58 | 39.64074 | 21.10185 | 33979 ft | 429 kts | 309° |
| 2026-04-23 11:58 | 39.68047 | 21.04382 | 33975 ft | 431 kts | 309° |
| 2026-04-23 11:59 | 39.72028 | 20.98559 | 33974 ft | 432 kts | 309° |
| 2026-04-23 11:59 | 39.75987 | 20.92749 | 33976 ft | 433 kts | 309° |
| 2026-04-23 12:00 | 39.79973 | 20.86882 | 33974 ft | 434 kts | 309° |
| 2026-04-23 12:00 | 39.83978 | 20.80989 | 33970 ft | 435 kts | 309° |
| 2026-04-23 12:01 | 39.87987 | 20.75071 | 33969 ft | 436 kts | 309° |
| 2026-04-23 12:01 | 39.92011 | 20.69133 | 33959 ft | 438 kts | 310° |
| 2026-04-23 12:02 | 39.96016 | 20.63210 | 33950 ft | 439 kts | 310° |
| 2026-04-23 12:02 | 40.00058 | 20.57208 | 33942 ft | 440 kts | 310° |
| 2026-04-23 12:03 | 40.04095 | 20.51193 | 33937 ft | 441 kts | 310° |
| 2026-04-23 12:03 | 40.08481 | 20.45583 | 33940 ft | 444 kts | 322° |
| 2026-04-23 12:04 | 40.13437 | 20.40829 | 33946 ft | 446 kts | 322° |
| 2026-04-23 12:04 | 40.18435 | 20.36017 | 33942 ft | 447 kts | 322° |
| 2026-04-23 12:05 | 40.23440 | 20.31180 | 33940 ft | 448 kts | 322° |
| 2026-04-23 12:05 | 40.28458 | 20.26320 | 33943 ft | 449 kts | 322° |
| 2026-04-23 12:06 | 40.33483 | 20.21440 | 33953 ft | 450 kts | 322° |
| 2026-04-23 12:06 | 40.41004 | 20.14122 | 33957 ft | 452 kts | 323° |
| 2026-04-23 12:07 | 40.46047 | 20.09204 | 33951 ft | 452 kts | 323° |
| 2026-04-23 12:07 | 40.51098 | 20.04266 | 33960 ft | 453 kts | 323° |
| 2026-04-23 12:08 | 40.56158 | 19.99321 | 33966 ft | 453 kts | 323° |
| 2026-04-23 12:08 | 40.61189 | 19.94401 | 33972 ft | 454 kts | 323° |
| 2026-04-23 12:09 | 40.66256 | 19.89436 | 33973 ft | 454 kts | 323° |
| 2026-04-23 12:09 | 40.71329 | 19.84450 | 33978 ft | 455 kts | 323° |
| 2026-04-23 12:10 | 40.76400 | 19.79444 | 33980 ft | 456 kts | 324° |
| 2026-04-23 12:10 | 40.81444 | 19.74459 | 33982 ft | 456 kts | 324° |
| 2026-04-23 12:11 | 40.86530 | 19.69431 | 33987 ft | 457 kts | 324° |
| 2026-04-23 12:11 | 40.91623 | 19.64391 | 33992 ft | 458 kts | 324° |
| 2026-04-23 12:12 | 40.96715 | 19.59332 | 34000 ft | 458 kts | 324° |
| 2026-04-23 12:12 | 41.01781 | 19.54286 | 34005 ft | 459 kts | 324° |
| 2026-04-23 12:13 | 41.06888 | 19.49187 | 34013 ft | 460 kts | 324° |
| 2026-04-23 12:13 | 41.12002 | 19.44080 | 34014 ft | 461 kts | 325° |
| 2026-04-23 12:14 | 41.17119 | 19.38955 | 34022 ft | 461 kts | 325° |
| 2026-04-23 12:14 | 41.22208 | 19.33851 | 34019 ft | 462 kts | 325° |
| 2026-04-23 12:15 | 41.27340 | 19.28698 | 34028 ft | 463 kts | 325° |
| 2026-04-23 12:15 | 41.32474 | 19.23519 | 34038 ft | 463 kts | 326° |
| 2026-04-23 12:16 | 41.37612 | 19.18332 | 34037 ft | 464 kts | 326° |
| 2026-04-23 12:16 | 41.42760 | 19.13127 | 34042 ft | 465 kts | 326° |
| 2026-04-23 12:17 | 41.47877 | 19.07941 | 34049 ft | 466 kts | 326° |
| 2026-04-23 12:17 | 41.53026 | 19.02688 | 34052 ft | 466 kts | 326° |
| 2026-04-23 12:18 | 41.58178 | 18.97410 | 34055 ft | 467 kts | 326° |
| 2026-04-23 12:18 | 41.63331 | 18.92121 | 34056 ft | 468 kts | 326° |
| 2026-04-23 12:19 | 41.68492 | 18.86810 | 34057 ft | 468 kts | 326° |
| 2026-04-23 12:19 | 41.73622 | 18.81522 | 34065 ft | 469 kts | 327° |
| 2026-04-23 12:20 | 41.78793 | 18.76177 | 34070 ft | 470 kts | 326° |
| 2026-04-23 12:20 | 41.83965 | 18.70817 | 34067 ft | 470 kts | 327° |
| 2026-04-23 12:21 | 41.89145 | 18.65453 | 34068 ft | 471 kts | 327° |
| 2026-04-23 12:21 | 41.94299 | 18.60114 | 34067 ft | 471 kts | 327° |
| 2026-04-23 12:22 | 41.99485 | 18.54712 | 34068 ft | 473 kts | 325° |
| 2026-04-23 12:22 | 42.03867 | 18.47995 | 34072 ft | 485 kts | 309° |
| 2026-04-23 12:23 | 42.07695 | 18.40531 | 34066 ft | 485 kts | 309° |
| 2026-04-23 12:23 | 42.11529 | 18.33037 | 34059 ft | 486 kts | 309° |
| 2026-04-23 12:24 | 42.15347 | 18.25577 | 34063 ft | 487 kts | 310° |
| 2026-04-23 12:24 | 42.19196 | 18.18050 | 34067 ft | 488 kts | 310° |
| 2026-04-23 12:25 | 42.23049 | 18.10502 | 34066 ft | 489 kts | 310° |
| 2026-04-23 12:25 | 42.26901 | 18.02927 | 34063 ft | 490 kts | 310° |
| 2026-04-23 12:26 | 42.30722 | 17.95385 | 34067 ft | 491 kts | 310° |
| 2026-04-23 12:26 | 42.34572 | 17.87763 | 34070 ft | 491 kts | 310° |
| 2026-04-23 12:27 | 42.38422 | 17.80123 | 34078 ft | 492 kts | 310° |
| 2026-04-23 12:27 | 42.42270 | 17.72463 | 34079 ft | 492 kts | 310° |
| 2026-04-23 12:28 | 42.46095 | 17.64845 | 34081 ft | 493 kts | 310° |
| 2026-04-23 12:28 | 42.49945 | 17.57157 | 34081 ft | 493 kts | 309° |
| 2026-04-23 12:29 | 42.53793 | 17.49446 | 34089 ft | 494 kts | 309° |
| 2026-04-23 12:29 | 42.57637 | 17.41730 | 34089 ft | 494 kts | 309° |
| 2026-04-23 12:30 | 42.61451 | 17.34048 | 34094 ft | 494 kts | 309° |
| 2026-04-23 12:30 | 42.65287 | 17.26300 | 34102 ft | 494 kts | 309° |
| 2026-04-23 12:31 | 42.69117 | 17.18547 | 34118 ft | 494 kts | 309° |
| 2026-04-23 12:31 | 42.72940 | 17.10784 | 34113 ft | 495 kts | 309° |
| 2026-04-23 12:32 | 42.76763 | 17.02995 | 34120 ft | 495 kts | 309° |
| 2026-04-23 12:32 | 42.80554 | 16.95264 | 34120 ft | 494 kts | 309° |
| 2026-04-23 12:33 | 42.84373 | 16.87470 | 34115 ft | 494 kts | 309° |
| 2026-04-23 12:33 | 42.88189 | 16.79653 | 34118 ft | 494 kts | 309° |
| 2026-04-23 12:34 | 42.91983 | 16.71834 | 34124 ft | 494 kts | 309° |
| 2026-04-23 12:34 | 42.95751 | 16.64060 | 34124 ft | 494 kts | 309° |
| 2026-04-23 12:35 | 42.99543 | 16.56234 | 34128 ft | 494 kts | 308° |
| 2026-04-23 12:35 | 43.03325 | 16.48398 | 34132 ft | 494 kts | 308° |
| 2026-04-23 12:36 | 43.07095 | 16.40561 | 34134 ft | 493 kts | 308° |
| 2026-04-23 12:36 | 43.10859 | 16.32715 | 34150 ft | 493 kts | 308° |
| 2026-04-23 12:37 | 43.14593 | 16.24928 | 34141 ft | 492 kts | 308° |
| 2026-04-23 12:37 | 43.18342 | 16.17082 | 34145 ft | 492 kts | 308° |
| 2026-04-23 12:38 | 43.22075 | 16.09234 | 34145 ft | 492 kts | 308° |
| 2026-04-23 12:38 | 43.25776 | 16.01423 | 34148 ft | 491 kts | 308° |
| 2026-04-23 12:39 | 43.29499 | 15.93568 | 34152 ft | 491 kts | 308° |
| 2026-04-23 12:39 | 43.33217 | 15.85726 | 34157 ft | 490 kts | 307° |
| 2026-04-23 12:40 | 43.36924 | 15.77851 | 34163 ft | 490 kts | 307° |
| 2026-04-23 12:40 | 43.40593 | 15.70032 | 34162 ft | 489 kts | 307° |
| 2026-04-23 12:41 | 43.44282 | 15.62171 | 34168 ft | 489 kts | 307° |
| 2026-04-23 12:41 | 43.47966 | 15.54306 | 34171 ft | 489 kts | 307° |
| 2026-04-23 12:42 | 43.51634 | 15.46432 | 34174 ft | 488 kts | 307° |
| 2026-04-23 12:42 | 43.55291 | 15.38542 | 34176 ft | 488 kts | 307° |
| 2026-04-23 12:43 | 43.58921 | 15.30712 | 34185 ft | 488 kts | 307° |
| 2026-04-23 12:43 | 43.62572 | 15.22829 | 34186 ft | 487 kts | 307° |
| 2026-04-23 12:44 | 43.66214 | 15.14936 | 34190 ft | 487 kts | 307° |
| 2026-04-23 12:44 | 43.69842 | 15.07039 | 34191 ft | 487 kts | 306° |
| 2026-04-23 12:45 | 43.73447 | 14.99191 | 34192 ft | 486 kts | 307° |
| 2026-04-23 12:45 | 43.77065 | 14.91285 | 34202 ft | 486 kts | 306° |
| 2026-04-23 12:46 | 43.80663 | 14.83367 | 34196 ft | 486 kts | 306° |
| 2026-04-23 12:46 | 43.84256 | 14.75455 | 34202 ft | 486 kts | 306° |
| 2026-04-23 12:47 | 43.87827 | 14.67586 | 34212 ft | 485 kts | 306° |
| 2026-04-23 12:47 | 43.91419 | 14.59665 | 34220 ft | 485 kts | 306° |
| 2026-04-23 12:48 | 43.95006 | 14.51742 | 34217 ft | 485 kts | 306° |
| 2026-04-23 12:48 | 43.98578 | 14.43805 | 34218 ft | 484 kts | 306° |
| 2026-04-23 12:49 | 44.02131 | 14.35859 | 34223 ft | 484 kts | 306° |
| 2026-04-23 12:49 | 44.05656 | 14.27964 | 34225 ft | 484 kts | 306° |
| 2026-04-23 12:50 | 44.09205 | 14.20025 | 34223 ft | 483 kts | 306° |
| 2026-04-23 12:50 | 44.12754 | 14.12082 | 34224 ft | 483 kts | 305° |
| 2026-04-23 12:51 | 44.16285 | 14.04125 | 34227 ft | 483 kts | 305° |
| 2026-04-23 12:51 | 44.19782 | 13.96211 | 34222 ft | 483 kts | 305° |
| 2026-04-23 12:52 | 44.23298 | 13.88232 | 34225 ft | 483 kts | 305° |
| 2026-04-23 12:52 | 44.26813 | 13.80257 | 34225 ft | 482 kts | 305° |
| 2026-04-23 12:53 | 44.30320 | 13.72274 | 34228 ft | 482 kts | 305° |
| 2026-04-23 12:53 | 44.33793 | 13.64339 | 34229 ft | 482 kts | 305° |
| 2026-04-23 12:54 | 44.37281 | 13.56343 | 34229 ft | 482 kts | 305° |
| 2026-04-23 12:54 | 44.40764 | 13.48339 | 34233 ft | 482 kts | 304° |
| 2026-04-23 12:55 | 44.43619 | 13.39808 | 34230 ft | 486 kts | 296° |
| 2026-04-23 12:55 | 44.46223 | 13.31147 | 34233 ft | 486 kts | 296° |
| 2026-04-23 12:56 | 44.48839 | 13.22427 | 34234 ft | 486 kts | 296° |
| 2026-04-23 12:56 | 44.51448 | 13.13693 | 34237 ft | 486 kts | 296° |
| 2026-04-23 12:57 | 44.54051 | 13.04956 | 34239 ft | 486 kts | 296° |
| 2026-04-23 12:57 | 44.56628 | 12.96269 | 34242 ft | 486 kts | 296° |
| 2026-04-23 12:58 | 44.59221 | 12.87518 | 34249 ft | 486 kts | 296° |
| 2026-04-23 12:58 | 44.61815 | 12.78760 | 34245 ft | 486 kts | 296° |
| 2026-04-23 12:59 | 44.64397 | 12.70002 | 34256 ft | 486 kts | 296° |
| 2026-04-23 12:59 | 44.66949 | 12.61286 | 34256 ft | 486 kts | 295° |
| 2026-04-23 13:00 | 44.69505 | 12.52493 | 34254 ft | 486 kts | 296° |
| 2026-04-23 13:00 | 44.72069 | 12.43699 | 34243 ft | 486 kts | 296° |
| 2026-04-23 13:01 | 44.74626 | 12.34898 | 34239 ft | 486 kts | 295° |
| 2026-04-23 13:01 | 44.77150 | 12.26147 | 34258 ft | 486 kts | 295° |
| 2026-04-23 13:02 | 44.79690 | 12.17308 | 34257 ft | 487 kts | 295° |
| 2026-04-23 13:02 | 44.82225 | 12.08461 | 34248 ft | 488 kts | 295° |
| 2026-04-23 13:03 | 44.84756 | 11.99602 | 34258 ft | 488 kts | 295° |
| 2026-04-23 13:03 | 44.87269 | 11.90777 | 34263 ft | 488 kts | 295° |
| 2026-04-23 13:04 | 44.89796 | 11.81888 | 34265 ft | 489 kts | 295° |
| 2026-04-23 13:04 | 44.92318 | 11.72979 | 34267 ft | 489 kts | 295° |
| 2026-04-23 13:05 | 44.94832 | 11.64052 | 34267 ft | 489 kts | 295° |
| 2026-04-23 13:05 | 44.97336 | 11.55120 | 34259 ft | 489 kts | 295° |
| 2026-04-23 13:06 | 45.01064 | 11.41775 | 34241 ft | 489 kts | 295° |
| 2026-04-23 13:07 | 45.03555 | 11.32828 | 34241 ft | 489 kts | 294° |
| 2026-04-23 13:07 | 45.06037 | 11.23865 | 34241 ft | 489 kts | 294° |
| 2026-04-23 13:08 | 45.08498 | 11.14962 | 34243 ft | 489 kts | 294° |
| 2026-04-23 13:08 | 45.10967 | 11.05990 | 34248 ft | 489 kts | 294° |
| 2026-04-23 13:09 | 45.13432 | 10.97002 | 34245 ft | 490 kts | 294° |
| 2026-04-23 13:09 | 45.15890 | 10.88002 | 34241 ft | 490 kts | 294° |
| 2026-04-23 13:10 | 45.18327 | 10.79039 | 34235 ft | 491 kts | 294° |
| 2026-04-23 13:10 | 45.20772 | 10.70002 | 34210 ft | 491 kts | 294° |
| 2026-04-23 13:11 | 45.23220 | 10.60953 | 34209 ft | 492 kts | 294° |
| 2026-04-23 13:11 | 45.25662 | 10.51887 | 34206 ft | 492 kts | 294° |
| 2026-04-23 13:12 | 45.28096 | 10.42810 | 34211 ft | 492 kts | 293° |
| 2026-04-23 13:12 | 45.30507 | 10.33767 | 34209 ft | 493 kts | 293° |
| 2026-04-23 13:13 | 45.32930 | 10.24651 | 34213 ft | 493 kts | 293° |
| 2026-04-23 13:13 | 45.35341 | 10.15518 | 34214 ft | 494 kts | 293° |
| 2026-04-23 13:14 | 45.37758 | 10.06382 | 34214 ft | 494 kts | 293° |
| 2026-04-23 13:14 | 45.40149 | 9.97295 | 34215 ft | 494 kts | 292° |
| 2026-04-23 13:15 | 45.42546 | 9.88127 | 34220 ft | 494 kts | 292° |
| 2026-04-23 13:15 | 45.44944 | 9.78951 | 34180 ft | 495 kts | 292° |
| 2026-04-23 13:16 | 45.47337 | 9.69760 | 34159 ft | 495 kts | 292° |
| 2026-04-23 13:16 | 45.49704 | 9.60621 | 34142 ft | 495 kts | 292° |
| 2026-04-23 13:17 | 45.52078 | 9.51405 | 34147 ft | 495 kts | 292° |
| 2026-04-23 13:17 | 45.54445 | 9.42171 | 34143 ft | 496 kts | 292° |
| 2026-04-23 13:18 | 45.56799 | 9.32932 | 34157 ft | 496 kts | 292° |
| 2026-04-23 13:18 | 45.59148 | 9.23673 | 34234 ft | 496 kts | 291° |
| 2026-04-23 13:19 | 45.61487 | 9.14470 | 34229 ft | 496 kts | 291° |
| 2026-04-23 13:19 | 45.63832 | 9.05189 | 34228 ft | 497 kts | 291° |
| 2026-04-23 13:20 | 45.65251 | 8.95519 | 34235 ft | 499 kts | 278° |
| 2026-04-23 13:20 | 45.66189 | 8.85688 | 34228 ft | 499 kts | 278° |
| 2026-04-23 13:21 | 45.67118 | 8.75924 | 34233 ft | 500 kts | 278° |
| 2026-04-23 13:21 | 45.68048 | 8.66087 | 34230 ft | 500 kts | 278° |
| 2026-04-23 13:22 | 45.68965 | 8.56227 | 34232 ft | 500 kts | 278° |
| 2026-04-23 13:22 | 45.69879 | 8.46367 | 34234 ft | 500 kts | 278° |
| 2026-04-23 13:23 | 45.70784 | 8.36501 | 34234 ft | 500 kts | 278° |
| 2026-04-23 13:23 | 45.71677 | 8.26694 | 34235 ft | 501 kts | 278° |
| 2026-04-23 13:24 | 45.72564 | 8.16812 | 34241 ft | 501 kts | 277° |
| 2026-04-23 13:24 | 45.73436 | 8.06930 | 34232 ft | 501 kts | 277° |
| 2026-04-23 13:25 | 45.74307 | 7.97029 | 34247 ft | 501 kts | 277° |
| 2026-04-23 13:25 | 45.75182 | 7.87132 | 34245 ft | 501 kts | 277° |
| 2026-04-23 13:26 | 45.76044 | 7.77291 | 34239 ft | 501 kts | 277° |
| 2026-04-23 13:26 | 45.76889 | 7.67390 | 34172 ft | 501 kts | 277° |
| 2026-04-23 13:26 | 45.77307 | 7.62480 | 33874 ft | 490 kts | 277° |
| 2026-04-23 13:27 | 45.77711 | 7.57711 | 33081 ft | 477 kts | 277° |
| 2026-04-23 13:27 | 45.78107 | 7.53025 | 32181 ft | 469 kts | 277° |
| 2026-04-23 13:27 | 45.78489 | 7.48483 | 31288 ft | 462 kts | 277° |
| 2026-04-23 13:27 | 45.78871 | 7.43943 | 30437 ft | 456 kts | 277° |
| 2026-04-23 13:28 | 45.79244 | 7.39465 | 29509 ft | 450 kts | 276° |
| 2026-04-23 13:28 | 45.79607 | 7.35063 | 28687 ft | 441 kts | 276° |
| 2026-04-23 13:28 | 45.79957 | 7.30784 | 28334 ft | 422 kts | 276° |
| 2026-04-23 13:28 | 45.80292 | 7.26675 | 27905 ft | 408 kts | 276° |
| 2026-04-23 13:29 | 45.80615 | 7.22704 | 27497 ft | 394 kts | 276° |
| 2026-04-23 13:29 | 45.80925 | 7.18865 | 27091 ft | 381 kts | 276° |
| 2026-04-23 13:29 | 45.81224 | 7.15167 | 26693 ft | 369 kts | 276° |
| 2026-04-23 13:29 | 45.81515 | 7.11564 | 26318 ft | 368 kts | 276° |
| 2026-04-23 13:30 | 45.81937 | 7.07959 | 25902 ft | 366 kts | 285° |
| 2026-04-23 13:30 | 45.82757 | 7.04534 | 25492 ft | 362 kts | 296° |
| 2026-04-23 13:30 | 45.83950 | 7.01393 | 25104 ft | 358 kts | 306° |
| 2026-04-23 13:30 | 45.85373 | 6.98448 | 24693 ft | 359 kts | 306° |
| 2026-04-23 13:31 | 45.86790 | 6.95501 | 24272 ft | 358 kts | 306° |
| 2026-04-23 13:31 | 45.88189 | 6.92561 | 23864 ft | 356 kts | 306° |
| 2026-04-23 13:31 | 45.89580 | 6.89622 | 23402 ft | 356 kts | 306° |
| 2026-04-23 13:31 | 45.90949 | 6.86726 | 22979 ft | 354 kts | 305° |
| 2026-04-23 13:32 | 45.92326 | 6.83811 | 22574 ft | 352 kts | 306° |
| 2026-04-23 13:32 | 45.93701 | 6.80910 | 22161 ft | 350 kts | 306° |
| 2026-04-23 13:32 | 45.95073 | 6.78022 | 21752 ft | 349 kts | 305° |
| 2026-04-23 13:32 | 45.96438 | 6.75142 | 21340 ft | 348 kts | 305° |
| 2026-04-23 13:33 | 45.97792 | 6.72253 | 20930 ft | 348 kts | 305° |
| 2026-04-23 13:33 | 45.99135 | 6.69361 | 20521 ft | 348 kts | 304° |
| 2026-04-23 13:33 | 46.00471 | 6.66464 | 20126 ft | 348 kts | 304° |
| 2026-04-23 13:33 | 46.01804 | 6.63564 | 19718 ft | 347 kts | 304° |
| 2026-04-23 13:34 | 46.03120 | 6.60705 | 19322 ft | 348 kts | 304° |
| 2026-04-23 13:34 | 46.04457 | 6.57806 | 18916 ft | 348 kts | 304° |
| 2026-04-23 13:34 | 46.05799 | 6.54904 | 18503 ft | 348 kts | 304° |
| 2026-04-23 13:34 | 46.07154 | 6.52010 | 18075 ft | 348 kts | 305° |
| 2026-04-23 13:35 | 46.08517 | 6.49134 | 17676 ft | 347 kts | 305° |
| 2026-04-23 13:35 | 46.09879 | 6.46269 | 17275 ft | 346 kts | 305° |
| 2026-04-23 13:35 | 46.11231 | 6.43421 | 16894 ft | 343 kts | 304° |
| 2026-04-23 13:35 | 46.12574 | 6.40583 | 16501 ft | 342 kts | 305° |
| 2026-04-23 13:36 | 46.13933 | 6.37703 | 15672 ft | 355 kts | 305° |
| 2026-04-23 13:36 | 46.15351 | 6.34695 | 14749 ft | 371 kts | 305° |
| 2026-04-23 13:36 | 46.16801 | 6.31598 | 13749 ft | 385 kts | 303° |
| 2026-04-23 13:36 | 46.17829 | 6.27982 | 12672 ft | 398 kts | 280° |
| 2026-04-23 13:37 | 46.17756 | 6.23988 | 11717 ft | 404 kts | 255° |
| 2026-04-23 13:37 | 46.16560 | 6.20358 | 10966 ft | 401 kts | 232° |
| 2026-04-23 13:37 | 46.14763 | 6.17291 | 10201 ft | 399 kts | 226° |
| 2026-04-23 13:37 | 46.12821 | 6.14455 | 9476 ft | 396 kts | 223° |
| 2026-04-23 13:38 | 46.10838 | 6.11752 | 8820 ft | 391 kts | 222° |
| 2026-04-23 13:38 | 46.08866 | 6.09087 | 8178 ft | 387 kts | 222° |
| 2026-04-23 13:38 | 46.06926 | 6.06435 | 7488 ft | 382 kts | 223° |
| 2026-04-23 13:38 | 46.05054 | 6.03822 | 7000 ft | 373 kts | 224° |
| 2026-04-23 13:39 | 46.03263 | 6.01273 | 7008 ft | 351 kts | 224° |
| 2026-04-23 13:39 | 46.01581 | 5.98853 | 7005 ft | 332 kts | 225° |
| 2026-04-23 13:39 | 46.00029 | 5.96609 | 7004 ft | 301 kts | 225° |
| 2026-04-23 13:39 | 45.98621 | 5.94575 | 7011 ft | 276 kts | 225° |
| 2026-04-23 13:40 | 45.97375 | 5.92590 | 7015 ft | 262 kts | 239° |
| 2026-04-23 13:40 | 45.96825 | 5.90196 | 7010 ft | 250 kts | 268° |
| 2026-04-23 13:40 | 45.97140 | 5.87786 | 7015 ft | 247 kts | 298° |
| 2026-04-23 13:40 | 45.98177 | 5.85853 | 7026 ft | 245 kts | 317° |
| 2026-04-23 13:41 | 45.99400 | 5.84213 | 7017 ft | 240 kts | 326° |
| 2026-04-23 13:41 | 46.00851 | 5.83114 | 6818 ft | 234 kts | 344° |
| 2026-04-23 13:41 | 46.02435 | 5.82754 | 6678 ft | 230 kts | 2° |
| 2026-04-23 13:41 | 46.03984 | 5.83108 | 6469 ft | 224 kts | 20° |
| 2026-04-23 13:42 | 46.05361 | 5.84116 | 6231 ft | 223 kts | 36° |
| 2026-04-23 13:42 | 46.06491 | 5.85624 | 5933 ft | 219 kts | 45° |
| 2026-04-23 13:42 | 46.07542 | 5.87154 | 5651 ft | 210 kts | 45° |
| 2026-04-23 13:42 | 46.08564 | 5.88640 | 5396 ft | 209 kts | 44° |
| 2026-04-23 13:43 | 46.09574 | 5.90110 | 5121 ft | 205 kts | 45° |
| 2026-04-23 13:43 | 46.10554 | 5.91534 | 4891 ft | 198 kts | 45° |
| 2026-04-23 13:43 | 46.11505 | 5.92920 | 4583 ft | 191 kts | 44° |
| 2026-04-23 13:43 | 46.12411 | 5.94240 | 4330 ft | 179 kts | 45° |
| 2026-04-23 13:44 | 46.13256 | 5.95470 | 4098 ft | 166 kts | 44° |
| 2026-04-23 13:44 | 46.14041 | 5.96615 | 3889 ft | 156 kts | 44° |
| 2026-04-23 13:44 | 46.14794 | 5.97714 | 3721 ft | 157 kts | 44° |
| 2026-04-23 13:44 | 46.15571 | 5.98845 | 3477 ft | 158 kts | 44° |
| 2026-04-23 13:45 | 46.16072 | 5.99576 | 3345 ft | 154 kts | 43° |
| 2026-04-23 13:45 | 46.17060 | 6.01020 | 3071 ft | 149 kts | 43° |
| 2026-04-23 13:45 | 46.17781 | 6.02074 | 2866 ft | 148 kts | 45° |
| 2026-04-23 13:45 | 46.18490 | 6.03110 | 2716 ft | 147 kts | 45° |
| 2026-04-23 13:46 | 46.19207 | 6.04172 | 2468 ft | 146 kts | 45° |
| 2026-04-23 13:46 | 46.19931 | 6.05206 | 2272 ft | 147 kts | 45° |
| 2026-04-23 13:46 | 46.20639 | 6.06251 | 2015 ft | 145 kts | 45° |
| 2026-04-23 13:46 | 46.21341 | 6.07275 | 1849 ft | 143 kts | 45° |
| 2026-04-23 13:47 | 46.22035 | 6.08294 | 1666 ft | 142 kts | 45° |
| 2026-04-23 13:47 | 46.22726 | 6.09312 | 1465 ft | 141 kts | 45° |
| 2026-04-23 13:47 | 46.23387 | 6.10278 | 1403 ft | 124 kts | 46° |
| 2026-04-23 13:47 | 46.24041 | 6.11235 | 1682 ft | 147 kts | 46° |
| 2026-04-23 13:48 | 46.24704 | 6.12193 | 2471 ft | 119 kts | 44° |
| 2026-04-23 13:48 | 46.25301 | 6.13127 | 2979 ft | 133 kts | 59° |
| 2026-04-23 13:48 | 46.25515 | 6.14505 | 3493 ft | 158 kts | 97° |
| 2026-04-23 13:48 | 46.25004 | 6.15983 | 4135 ft | 175 kts | 134° |
| 2026-04-23 13:49 | 46.23884 | 6.16799 | 4877 ft | 186 kts | 168° |
| 2026-04-23 13:49 | 46.22602 | 6.16737 | 5772 ft | 180 kts | 189° |
| 2026-04-23 13:49 | 46.21485 | 6.16220 | 6783 ft | 172 kts | 216° |
| 2026-04-23 13:49 | 46.20471 | 6.15311 | 7564 ft | 167 kts | 207° |
| 2026-04-23 13:50 | 46.19458 | 6.14453 | 8088 ft | 193 kts | 210° |
| 2026-04-23 13:50 | 46.18183 | 6.13372 | 8121 ft | 225 kts | 207° |
| 2026-04-23 13:50 | 46.16787 | 6.12121 | 8050 ft | 241 kts | 215° |
| 2026-04-23 13:50 | 46.15460 | 6.10583 | 7610 ft | 247 kts | 219° |
| 2026-04-23 13:51 | 46.14140 | 6.08990 | 7270 ft | 247 kts | 219° |
| 2026-04-23 13:51 | 46.12817 | 6.07407 | 6953 ft | 247 kts | 219° |
| 2026-04-23 13:51 | 46.11497 | 6.05846 | 6669 ft | 244 kts | 219° |
| 2026-04-23 13:51 | 46.10181 | 6.04303 | 6379 ft | 244 kts | 219° |
| 2026-04-23 13:52 | 46.08809 | 6.02887 | 6065 ft | 241 kts | 216° |
| 2026-04-23 13:52 | 46.07555 | 6.01342 | 5973 ft | 240 kts | 224° |
| 2026-04-23 13:52 | 46.06357 | 5.99662 | 5981 ft | 241 kts | 224° |
| 2026-04-23 13:52 | 46.05161 | 5.97961 | 5982 ft | 241 kts | 226° |
| 2026-04-23 13:53 | 46.03969 | 5.96264 | 5990 ft | 242 kts | 225° |
| 2026-04-23 13:53 | 46.02771 | 5.94569 | 5977 ft | 241 kts | 225° |
| 2026-04-23 13:53 | 46.01571 | 5.92872 | 5979 ft | 242 kts | 227° |
| 2026-04-23 13:53 | 46.00709 | 5.90848 | 5990 ft | 238 kts | 258° |
| 2026-04-23 13:54 | 46.00760 | 5.88512 | 5987 ft | 233 kts | 292° |
| 2026-04-23 13:54 | 46.01572 | 5.86619 | 5979 ft | 216 kts | 316° |
| 2026-04-23 13:54 | 46.02737 | 5.85407 | 5996 ft | 208 kts | 336° |
| 2026-04-23 13:54 | 46.04103 | 5.84888 | 5990 ft | 203 kts | 358° |
| 2026-04-23 13:55 | 46.05506 | 5.85111 | 5985 ft | 205 kts | 18° |
| 2026-04-23 13:55 | 46.06754 | 5.86049 | 5824 ft | 204 kts | 40° |
| 2026-04-23 13:55 | 46.07768 | 5.87470 | 5586 ft | 204 kts | 45° |
| 2026-04-23 13:55 | 46.08763 | 5.88924 | 5340 ft | 204 kts | 45° |
| 2026-04-23 13:56 | 46.09749 | 5.90363 | 5065 ft | 201 kts | 43° |
| 2026-04-23 13:56 | 46.10726 | 5.91784 | 4841 ft | 193 kts | 44° |
| 2026-04-23 13:56 | 46.11632 | 5.93104 | 4548 ft | 181 kts | 44° |
| 2026-04-23 13:56 | 46.12479 | 5.94339 | 4311 ft | 167 kts | 44° |
| 2026-04-23 13:57 | 46.13267 | 5.95486 | 4122 ft | 154 kts | 45° |
| 2026-04-23 13:57 | 46.14011 | 5.96571 | 3900 ft | 150 kts | 44° |
| 2026-04-23 13:57 | 46.14744 | 5.97640 | 3731 ft | 152 kts | 44° |
| 2026-04-23 13:57 | 46.15499 | 5.98740 | 3493 ft | 154 kts | 43° |
| 2026-04-23 13:58 | 46.16238 | 5.99819 | 3308 ft | 150 kts | 45° |
| 2026-04-23 13:58 | 46.16962 | 6.00877 | 3097 ft | 147 kts | 44° |
| 2026-04-23 13:58 | 46.17676 | 6.01920 | 2904 ft | 146 kts | 45° |
| 2026-04-23 13:58 | 46.18376 | 6.02942 | 2709 ft | 145 kts | 45° |
| 2026-04-23 13:59 | 46.19081 | 6.03974 | 2494 ft | 143 kts | 45° |
| 2026-04-23 13:59 | 46.19784 | 6.05002 | 2285 ft | 145 kts | 44° |
| 2026-04-23 13:59 | 46.20485 | 6.06029 | 2088 ft | 143 kts | 46° |
| 2026-04-23 13:59 | 46.21182 | 6.07049 | 1905 ft | 142 kts | 43° |
| 2026-04-23 14:00 | 46.21639 | 6.07720 | 1775 ft | 141 kts | 44° |
| 2026-04-23 14:00 | 46.22559 | 6.09068 | 1515 ft | 140 kts | 45° |
| 2026-04-23 14:00 | 46.23230 | 6.10050 | 1409 ft | 129 kts | 44° |
| 2026-04-23 14:00 | 46.23772 | 6.10843 | 1381 ft | 88 kts | 45° |
| 2026-04-23 14:01 | 46.24077 | 6.11291 | 1374 ft | 39 kts | 45° |
| 2026-04-23 14:01 | 46.24227 | 6.11510 | 1374 ft | 27 kts | 45° |
| 2026-04-23 14:01 | 46.24301 | 6.11667 | 1371 ft | 17 kts | 69° |
| 2026-04-23 14:01 | 46.24331 | 6.11811 | 1368 ft | 15 kts | 75° |
| 2026-04-23 14:02 | 46.24321 | 6.11946 | 1364 ft | 15 kts | 152° |
| 2026-04-23 14:02 | 46.24242 | 6.11871 | 1362 ft | 13 kts | 230° |
| 2026-04-23 14:02 | 46.24194 | 6.11794 | 1363 ft | 8 kts | 224° |
| 2026-04-23 14:02 | 46.24161 | 6.11748 | 1365 ft | 5 kts | 224° |
| 2026-04-23 14:03 | 46.24142 | 6.11721 | 1366 ft | 6 kts | 225° |
| 2026-04-23 14:03 | 46.24101 | 6.11661 | 1367 ft | 7 kts | 225° |
| 2026-04-23 14:03 | 46.24075 | 6.11623 | 1369 ft | 3 kts | 226° |
| 2026-04-23 14:03 | 46.24028 | 6.11555 | 1370 ft | 16 kts | 225° |
| 2026-04-23 14:04 | 46.23962 | 6.11458 | 1373 ft | 12 kts | 226° |
| 2026-04-23 14:04 | 46.23915 | 6.11387 | 1373 ft | 8 kts | 225° |
| 2026-04-23 14:04 | 46.23879 | 6.11335 | 1375 ft | 11 kts | 225° |
| 2026-04-23 14:04 | 46.23827 | 6.11259 | 1378 ft | 10 kts | 226° |
| 2026-04-23 14:05 | 46.23784 | 6.11197 | 1378 ft | 11 kts | 225° |
| 2026-04-23 14:05 | 46.23721 | 6.11105 | 1386 ft | 11 kts | 225° |
| 2026-04-23 14:05 | 46.23685 | 6.11051 | 1385 ft | 8 kts | 226° |
| 2026-04-23 14:05 | 46.23606 | 6.10936 | 1389 ft | 17 kts | 225° |
| 2026-04-23 14:06 | 46.23527 | 6.10819 | 1391 ft | 15 kts | 225° |
| 2026-04-23 14:06 | 46.23457 | 6.10716 | 1391 ft | 13 kts | 226° |
| 2026-04-23 14:06 | 46.23415 | 6.10656 | 1396 ft | 12 kts | 221° |
| 2026-04-23 14:06 | 46.23341 | 6.10557 | 1396 ft | 10 kts | 224° |
| 2026-04-23 14:07 | 46.23296 | 6.10510 | 1400 ft | 6 kts | 184° |
| 2026-04-23 14:07 | 46.23237 | 6.10587 | 1393 ft | 6 kts | 136° |
| 2026-04-23 14:07 | 46.23209 | 6.10627 | 1400 ft | 5 kts | 135° |
| 2026-04-23 14:08 | 46.23186 | 6.10658 | 1401 ft | 4 kts | 136° |
| 2026-04-23 14:08 | 46.23169 | 6.10657 | 1395 ft | 4 kts | 199° |
| 2026-04-23 14:08 | 46.23153 | 6.10638 | 1401 ft | 3 kts | 223° |
| 2026-04-23 14:08 | 46.23133 | 6.10626 | 1399 ft | 2 kts | 166° |
| 2026-04-23 14:09 | 46.23113 | 6.10650 | 1398 ft | 4 kts | 135° |
| 2026-04-23 14:09 | 46.23102 | 6.10666 | 1393 ft | 0 kts | 135° |